Cranfills Gap, Texas
Current Conditions -  °F | °C
As of 5:55 PM on Wednesday 22 Oct 2014 (Local Time) from KMNZ Reporting Station
Clear Clear  
Wind Chill: 78°   Ceiling: Unl
Heat Index: 79°   Visibility: 10mi
Dew Point: 56°   Wind: 12mph
Humidity: 46%   Direction: 120°ESE
Pressure: 30.09"   Gusts: 16mph
Location:  31.77°N, 97.83°W
Report Text: KMNZ 222255Z AUTO 12010G14KT 10SM CLR 26/13 A3009 RMK AO2 T02550131
Loading
Personal Weather Stations






























Interactive Weather Map
Tropical Storm Tracking
New forecast layout! Learn more

10-Day Weather Forecast

Advertisements
Track Severe Weather on mobile